x

Edisto - 41 Nm Southeast Of Charleston, Sc (41004) Wave Buoy

11:50am - Sun 21st Dec 2014 All times are EST. -5 hours from GMT.

  • Sig Wave height 6.6ft
  • Swell Direction
  • Peak Period 6s
  • Average Period 5s
  • Wind
    22mph, 25mph gusts
  • Sea Temp 69°f
  • Air Temp 61°f
  • Sea Pressure 1020.9mb
  • Edisto - 41 Nm Southeast Of Charleston, Sc
  • Edisto - 41 Nm Southeast Of Charleston, Sc

More Historic Weather Station data

Upgrade to MSW Pro to gain access to the past 30 days of data for over 8000 Wavebouys and Weather Stations around the globe.

Join Pro

Comparision Forecast

View Surf forecast
   
Sun 12/21 11:50am 6.5ft 6s 5s 22 25 mph 1020.9mb 69f 61f
10:50am 6.5ft 6s 5s 22 25 mph 1021.4mb 70f 61f
9:50am 6.5ft 6s 5s 25 29 mph 1021.4mb 70f 60f
8:50am 6.5ft 6s 5s 25 29 mph 1021.4mb 70f 59f
7:50am 6ft 7s 5s 25 27 mph 1021.1mb 70f 60f
6:50am 6ft 7s 5s 25 29 mph 1020.4mb 71f 61f
5:50am 6ft 6s 5s 22 27 mph 1020mb 71f 61f
4:50am 5.5ft 8s 5s 22 27 mph 1019.4mb 70f 61f
3:50am 5.5ft 8s 5s 22 29 mph 1019.9mb 70f 61f
2:50am 5.5ft 6s 5s 22 27 mph 1020.1mb 70f 61f
1:50am 5.5ft 6s 5s 22 27 mph 1020.2mb 69f 61f
12:50am 6ft 6s 5s 22 29 mph 1020.3mb 69f 61f
Sat 12/20 11:50pm 5.5ft 6s 5s 22 27 mph 1020.6mb 68f 62f
10:50pm 5ft 5s 5s 22 25 mph 1021.2mb 68f 62f
9:50pm 5ft 6s 5s 20 25 mph 1021mb 69f 62f
8:50pm 4.5ft 6s 5s 22 27 mph 1021.1mb 70f 62f
7:50pm 4.5ft 6s 5s 20 25 mph 1020.8mb 70f 62f
6:50pm 4.5ft 5s 5s 20 25 mph 1020.9mb 70f 62f
5:50pm 4.5ft 5s 5s 18 22 mph 1020.6mb 70f 61f
4:50pm 4.5ft 6s 5s 20 27 mph 1019.9mb 70f 61f
3:50pm 4.5ft 5s 5s 20 25 mph 1019.5mb 69f 61f
2:50pm 4ft 5s 4s 22 27 mph 1019mb 68f 61f
1:50pm 3.5ft 5s 5s 18 22 mph 1019.7mb 68f 61f
12:50pm 3.5ft 5s 5s 11 13 mph 1020.8mb 68f 61f
11:50am 4ft 6s 5s 13 18 mph 1021.5mb 68f 61f
10:50am 4.5ft 6s 5s 13 18 mph 1021.5mb 68f 62f
9:50am 4.5ft 5s 5s 18 20 mph 1021mb 68f 61f
8:50am 4.5ft 5s 5s 20 22 mph 1020.7mb 69f 63f
7:50am 4ft 5s 5s 20 22 mph 1020mb 69f 64f
6:50am 3.5ft 5s 5s 20 25 mph 1019.6mb 69f 64f
5:50am 3ft 4s 5s 20 22 mph 1019mb 69f 64f
4:50am 2.5ft 4s 4s 20 22 mph 1018.5mb 69f 64f
3:50am 2.5ft 11s 5s 16 18 mph 1019.5mb 69f 65f
2:50am 2.5ft 4s 5s 13 16 mph 1019.5mb 68f 65f
1:50am 2.5ft 4s 4s 9 11 mph 1020mb 68f 65f
12:50am 2.5ft 4s 5s 7 9 mph 1020.3mb 68f 65f
Fri 12/19 11:50pm 2.5ft 10s 5s 7 11 mph 1020mb 68f 65f
10:50pm 2.5ft 10s 5s 4 9 mph 1020.3mb 68f 64f
9:50pm 2.5ft 10s 5s 4 9 mph 1020.2mb 68f 64f
8:50pm 2ft 11s 5s 9 11 mph 1019.4mb 68f 63f
7:50pm 2ft 10s 5s 7 9 mph 1019.8mb 68f 63f
6:50pm 2ft 9s 5s 2 7 mph 1019.7mb 68f 63f
5:50pm 2ft 10s 5s 4 7 mph 1019.5mb 68f 63f
4:50pm 1.6ft 10s 5s 2 4 mph 1019.3mb 69f 62f
3:50pm 1.6ft 10s 5s 4 7 mph 1018.9mb 69f 62f
2:50pm 1.6ft 10s 5s 7 9 mph 1018.6mb 68f 62f
1:50pm 1.3ft 10s 5s 7 11 mph 1018.6mb 67f 62f
12:50pm 1.3ft 10s 5s 4 9 mph 1019.1mb 67f 61f
11:50am 1.3ft 10s 5s 4 7 mph 1020.1mb 67f 61f
10:50am 1.3ft 10s 5s 4 7 mph 1020.8mb 67f 61f
9:50am 1.3ft 11s 5s 7 9 mph 1020.9mb 68f 61f
8:50am 1.3ft 10s 5s 7 9 mph 1020.3mb 70f 61f
7:50am 1.3ft 10s 5s 7 9 mph 1019.5mb 72f 61f
6:50am 1.6ft 10s 5s 7 9 mph 1018.8mb 72f 60f
5:50am 1.3ft 10s 5s 7 9 mph 1018.1mb 72f 60f
4:50am 1.6ft 11s 5s 4 9 mph 1018.1mb 72f 60f
3:50am 1.6ft 10s 5s 7 9 mph 1018.4mb 72f 60f
2:50am 1.6ft 9s 4s 7 11 mph 1018.6mb 72f 60f
1:50am 1.6ft 10s 4s 9 13 mph 1018.5mb 72f 60f
12:50am 2ft 4s 5s 11 13 mph 1018.7mb 72f 61f
Thu 12/18 11:50pm 1.6ft 4s 4s 7 9 mph 1018.9mb 73f 61f
10:50pm 2ft 10s 5s 4 7 mph 1019mb 73f 62f
9:50pm 2ft 5s 5s 7 9 mph 1019mb 73f 62f
8:50pm 2ft 5s 5s 7 11 mph 1018.8mb 73f 61f
7:50pm 2ft 5s 5s 2 7 mph 1018.5mb 73f 61f
6:50pm 1.6ft 10s 5s 4 9 mph 1018.3mb 73f 60f
5:50pm 1.6ft 10s 5s 4 7 mph 1018.1mb 73f 60f
4:50pm 1.6ft 9s 5s 4 7 mph 1017.9mb 73f 61f
3:50pm 1.3ft 11s 5s 2 7 mph 1017.9mb 73f 61f
2:50pm 1.3ft 11s 5s 2 4 mph 1017.9mb 73f 62f
1:50pm 1.3ft 10s 5s 2 7 mph 1018.5mb 73f 61f
12:50pm 1.3ft 7s 5s 2 7 mph 1019.2mb 73f 60f
11:50am 1.3ft 10s 5s 4 7 mph 1020.4mb 72f 60f
10:50am 1.3ft 10s 5s 4 7 mph 1021.2mb 72f 60f
9:50am 1.3ft 9s 5s 7 11 mph 1021.1mb 72f 60f
8:50am 1.3ft 10s 4s 7 9 mph 1020.6mb 73f 60f
7:50am 1.3ft 10s 4s 7 9 mph 1020.1mb 73f 60f
6:50am 1.3ft 11s 4s 9 13 mph 1019.9mb 73f 60f
5:50am 1.6ft 11s 4s 9 13 mph 1019mb 73f 60f
4:50am  -   -   -  9 13 mph 1018.5mb 73f 60f
3:50am 1.6ft 10s 4s 9 11 mph 1018.6mb 73f 61f
2:50am 1.6ft 11s 4s 9 11 mph 1018.7mb 73f 61f
1:50am 1.6ft 10s 4s 11 18 mph 1018.8mb 73f 61f
12:50am 1.6ft 11s 4s 9 13 mph 1018.9mb 73f 61f
Wed 12/17 11:50pm 1.3ft 11s 4s 11 16 mph 1019.2mb 73f 61f
10:50pm 1.6ft 10s 5s 9 11 mph 1019.4mb 73f 61f
9:50pm 1.3ft 11s 5s 7 9 mph 1019.6mb 73f 61f
8:50pm 1.6ft 11s 5s 7 13 mph 1019.5mb 73f 61f
7:50pm 1.6ft 11s 5s 9 11 mph 1019.5mb 73f 61f
6:50pm 1.6ft 11s 5s 7 11 mph 1019.2mb 73f 60f